sensor_id;sensor_type;location;lat;lon;timestamp;P1;durP1;ratioP1;P2;durP2;ratioP2
75021;SDS011;63583;49.976;20.182;2024-01-30T00:01:59;19.15;;;9.38;;
75021;SDS011;63583;49.976;20.182;2024-01-30T00:04:25;21.83;;;9.80;;
75021;SDS011;63583;49.976;20.182;2024-01-30T00:06:51;18.98;;;9.73;;
75021;SDS011;63583;49.976;20.182;2024-01-30T00:09:18;21.42;;;9.85;;
75021;SDS011;63583;49.976;20.182;2024-01-30T00:11:44;20.20;;;9.70;;
75021;SDS011;63583;49.976;20.182;2024-01-30T00:14:11;19.00;;;10.30;;
75021;SDS011;63583;49.976;20.182;2024-01-30T00:16:37;22.40;;;10.68;;
75021;SDS011;63583;49.976;20.182;2024-01-30T00:19:03;25.83;;;10.63;;
75021;SDS011;63583;49.976;20.182;2024-01-30T00:21:28;21.27;;;10.15;;
75021;SDS011;63583;49.976;20.182;2024-01-30T00:23:54;25.67;;;10.52;;
75021;SDS011;63583;49.976;20.182;2024-01-30T00:26:20;19.42;;;9.13;;
75021;SDS011;63583;49.976;20.182;2024-01-30T00:28:46;19.80;;;8.85;;
75021;SDS011;63583;49.976;20.182;2024-01-30T00:31:12;23.83;;;10.02;;
75021;SDS011;63583;49.976;20.182;2024-01-30T00:33:39;20.33;;;9.93;;
75021;SDS011;63583;49.976;20.182;2024-01-30T00:36:06;18.17;;;8.60;;
75021;SDS011;63583;49.976;20.182;2024-01-30T00:38:33;19.95;;;9.80;;
75021;SDS011;63583;49.976;20.182;2024-01-30T00:40:59;26.48;;;10.00;;
75021;SDS011;63583;49.976;20.182;2024-01-30T00:43:25;21.92;;;10.20;;
75021;SDS011;63583;49.976;20.182;2024-01-30T00:45:51;22.08;;;10.05;;
75021;SDS011;63583;49.976;20.182;2024-01-30T00:48:20;16.77;;;9.63;;
75021;SDS011;63583;49.976;20.182;2024-01-30T00:50:46;23.92;;;10.23;;
75021;SDS011;63583;49.976;20.182;2024-01-30T00:53:12;22.88;;;10.43;;
75021;SDS011;63583;49.976;20.182;2024-01-30T00:55:38;21.70;;;10.18;;
75021;SDS011;63583;49.976;20.182;2024-01-30T00:58:04;17.85;;;8.65;;
75021;SDS011;63583;49.976;20.182;2024-01-30T01:00:30;20.73;;;9.18;;
75021;SDS011;63583;49.976;20.182;2024-01-30T01:02:57;19.30;;;8.70;;
75021;SDS011;63583;49.976;20.182;2024-01-30T01:05:23;19.88;;;8.77;;
75021;SDS011;63583;49.976;20.182;2024-01-30T01:07:49;18.45;;;8.77;;
75021;SDS011;63583;49.976;20.182;2024-01-30T01:10:18;18.40;;;9.00;;
75021;SDS011;63583;49.976;20.182;2024-01-30T01:12:45;20.65;;;10.27;;
75021;SDS011;63583;49.976;20.182;2024-01-30T01:15:11;21.58;;;10.52;;
75021;SDS011;63583;49.976;20.182;2024-01-30T01:17:38;16.35;;;8.68;;
75021;SDS011;63583;49.976;20.182;2024-01-30T01:20:04;20.80;;;8.80;;
75021;SDS011;63583;49.976;20.182;2024-01-30T01:22:32;18.50;;;8.50;;
75021;SDS011;63583;49.976;20.182;2024-01-30T01:24:58;19.45;;;9.50;;
75021;SDS011;63583;49.976;20.182;2024-01-30T01:27:24;18.75;;;8.63;;
75021;SDS011;63583;49.976;20.182;2024-01-30T01:29:51;17.38;;;7.85;;
75021;SDS011;63583;49.976;20.182;2024-01-30T01:32:17;15.60;;;7.50;;
75021;SDS011;63583;49.976;20.182;2024-01-30T01:34:43;14.10;;;7.80;;
75021;SDS011;63583;49.976;20.182;2024-01-30T01:37:09;14.55;;;6.95;;
75021;SDS011;63583;49.976;20.182;2024-01-30T01:39:35;16.60;;;7.68;;
75021;SDS011;63583;49.976;20.182;2024-01-30T01:42:01;17.13;;;7.35;;
75021;SDS011;63583;49.976;20.182;2024-01-30T01:44:27;13.07;;;6.53;;
75021;SDS011;63583;49.976;20.182;2024-01-30T01:46:54;16.98;;;7.38;;
75021;SDS011;63583;49.976;20.182;2024-01-30T01:49:20;19.77;;;9.40;;
75021;SDS011;63583;49.976;20.182;2024-01-30T01:51:49;19.17;;;9.10;;
75021;SDS011;63583;49.976;20.182;2024-01-30T01:56:45;15.10;;;7.45;;
75021;SDS011;63583;49.976;20.182;2024-01-30T01:59:11;12.68;;;6.68;;
75021;SDS011;63583;49.976;20.182;2024-01-30T02:01:37;13.45;;;6.28;;
75021;SDS011;63583;49.976;20.182;2024-01-30T02:04:04;12.65;;;6.00;;
75021;SDS011;63583;49.976;20.182;2024-01-30T02:06:32;13.95;;;7.30;;
75021;SDS011;63583;49.976;20.182;2024-01-30T02:08:58;13.10;;;7.18;;
75021;SDS011;63583;49.976;20.182;2024-01-30T02:11:24;16.45;;;7.47;;
75021;SDS011;63583;49.976;20.182;2024-01-30T02:13:50;13.45;;;6.53;;
75021;SDS011;63583;49.976;20.182;2024-01-30T02:16:16;17.35;;;7.03;;
75021;SDS011;63583;49.976;20.182;2024-01-30T02:18:44;16.83;;;7.40;;
75021;SDS011;63583;49.976;20.182;2024-01-30T02:21:16;16.77;;;6.47;;
75021;SDS011;63583;49.976;20.182;2024-01-30T02:23:43;15.23;;;7.18;;
75021;SDS011;63583;49.976;20.182;2024-01-30T02:26:10;13.90;;;6.95;;
75021;SDS011;63583;49.976;20.182;2024-01-30T02:28:37;14.90;;;7.07;;
75021;SDS011;63583;49.976;20.182;2024-01-30T02:31:03;15.43;;;7.28;;
75021;SDS011;63583;49.976;20.182;2024-01-30T02:33:29;13.65;;;6.28;;
75021;SDS011;63583;49.976;20.182;2024-01-30T02:35:56;12.05;;;5.90;;
75021;SDS011;63583;49.976;20.182;2024-01-30T02:38:21;15.48;;;6.90;;
75021;SDS011;63583;49.976;20.182;2024-01-30T02:40:49;11.63;;;6.32;;
75021;SDS011;63583;49.976;20.182;2024-01-30T02:43:15;12.32;;;6.55;;
75021;SDS011;63583;49.976;20.182;2024-01-30T02:45:42;15.95;;;6.35;;
75021;SDS011;63583;49.976;20.182;2024-01-30T02:48:08;12.73;;;6.55;;
75021;SDS011;63583;49.976;20.182;2024-01-30T02:50:34;16.20;;;6.53;;
75021;SDS011;63583;49.976;20.182;2024-01-30T02:53:00;14.52;;;7.07;;
75021;SDS011;63583;49.976;20.182;2024-01-30T02:55:26;11.63;;;5.63;;
75021;SDS011;63583;49.976;20.182;2024-01-30T02:57:51;12.35;;;5.95;;
75021;SDS011;63583;49.976;20.182;2024-01-30T03:00:18;11.00;;;5.85;;
75021;SDS011;63583;49.976;20.182;2024-01-30T03:02:45;13.18;;;6.72;;
75021;SDS011;63583;49.976;20.182;2024-01-30T03:05:11;12.65;;;5.60;;
75021;SDS011;63583;49.976;20.182;2024-01-30T03:07:36;11.45;;;5.07;;
75021;SDS011;63583;49.976;20.182;2024-01-30T03:10:04;8.15;;;4.45;;
75021;SDS011;63583;49.976;20.182;2024-01-30T03:12:31;11.23;;;5.10;;
75021;SDS011;63583;49.976;20.182;2024-01-30T03:14:57;10.85;;;5.07;;
75021;SDS011;63583;49.976;20.182;2024-01-30T03:17:23;9.77;;;5.28;;
75021;SDS011;63583;49.976;20.182;2024-01-30T03:19:50;10.40;;;4.95;;
75021;SDS011;63583;49.976;20.182;2024-01-30T03:22:15;12.38;;;4.90;;
75021;SDS011;63583;49.976;20.182;2024-01-30T03:24:42;10.65;;;5.22;;
75021;SDS011;63583;49.976;20.182;2024-01-30T03:27:08;11.70;;;5.57;;
75021;SDS011;63583;49.976;20.182;2024-01-30T03:29:34;10.00;;;5.13;;
75021;SDS011;63583;49.976;20.182;2024-01-30T03:32:00;11.63;;;4.97;;
75021;SDS011;63583;49.976;20.182;2024-01-30T03:34:26;10.65;;;5.05;;
75021;SDS011;63583;49.976;20.182;2024-01-30T03:36:52;9.05;;;4.43;;
75021;SDS011;63583;49.976;20.182;2024-01-30T03:39:18;12.63;;;5.32;;
75021;SDS011;63583;49.976;20.182;2024-01-30T03:41:43;10.43;;;5.53;;
75021;SDS011;63583;49.976;20.182;2024-01-30T03:44:10;12.93;;;5.45;;
75021;SDS011;63583;49.976;20.182;2024-01-30T03:46:36;8.60;;;5.43;;
75021;SDS011;63583;49.976;20.182;2024-01-30T03:49:02;11.48;;;5.68;;
75021;SDS011;63583;49.976;20.182;2024-01-30T03:51:28;10.82;;;5.45;;
75021;SDS011;63583;49.976;20.182;2024-01-30T03:53:54;11.75;;;4.97;;
75021;SDS011;63583;49.976;20.182;2024-01-30T03:56:20;12.73;;;4.70;;
75021;SDS011;63583;49.976;20.182;2024-01-30T03:58:46;8.20;;;3.78;;
75021;SDS011;63583;49.976;20.182;2024-01-30T04:01:14;8.85;;;4.50;;
75021;SDS011;63583;49.976;20.182;2024-01-30T04:03:41;7.30;;;4.10;;
75021;SDS011;63583;49.976;20.182;2024-01-30T04:06:07;9.55;;;4.60;;
75021;SDS011;63583;49.976;20.182;2024-01-30T04:08:34;7.97;;;4.10;;
75021;SDS011;63583;49.976;20.182;2024-01-30T04:11:03;8.27;;;4.25;;
75021;SDS011;63583;49.976;20.182;2024-01-30T04:13:32;7.95;;;4.90;;
75021;SDS011;63583;49.976;20.182;2024-01-30T04:16:01;9.02;;;4.35;;
75021;SDS011;63583;49.976;20.182;2024-01-30T04:18:28;9.38;;;5.43;;
75021;SDS011;63583;49.976;20.182;2024-01-30T04:20:54;31.50;;;16.65;;
75021;SDS011;63583;49.976;20.182;2024-01-30T04:23:20;39.28;;;17.95;;
75021;SDS011;63583;49.976;20.182;2024-01-30T04:25:46;27.67;;;14.73;;
75021;SDS011;63583;49.976;20.182;2024-01-30T04:28:12;22.38;;;10.52;;
75021;SDS011;63583;49.976;20.182;2024-01-30T04:30:38;13.82;;;6.78;;
75021;SDS011;63583;49.976;20.182;2024-01-30T04:33:05;9.05;;;4.18;;
75021;SDS011;63583;49.976;20.182;2024-01-30T04:35:31;9.07;;;4.22;;
75021;SDS011;63583;49.976;20.182;2024-01-30T04:37:57;7.97;;;4.20;;
75021;SDS011;63583;49.976;20.182;2024-01-30T04:40:22;8.77;;;3.97;;
75021;SDS011;63583;49.976;20.182;2024-01-30T04:42:49;8.55;;;3.95;;
75021;SDS011;63583;49.976;20.182;2024-01-30T04:45:14;9.90;;;4.72;;
75021;SDS011;63583;49.976;20.182;2024-01-30T04:47:41;7.93;;;4.20;;
75021;SDS011;63583;49.976;20.182;2024-01-30T04:50:06;8.88;;;3.72;;
75021;SDS011;63583;49.976;20.182;2024-01-30T04:52:34;9.60;;;4.20;;
75021;SDS011;63583;49.976;20.182;2024-01-30T04:55:00;7.97;;;4.15;;
75021;SDS011;63583;49.976;20.182;2024-01-30T04:57:26;7.60;;;3.45;;
75021;SDS011;63583;49.976;20.182;2024-01-30T04:59:52;7.30;;;3.80;;
75021;SDS011;63583;49.976;20.182;2024-01-30T05:02:18;8.90;;;3.75;;
75021;SDS011;63583;49.976;20.182;2024-01-30T05:04:43;8.98;;;4.15;;
75021;SDS011;63583;49.976;20.182;2024-01-30T05:07:10;9.10;;;4.07;;
75021;SDS011;63583;49.976;20.182;2024-01-30T05:09:35;7.68;;;3.88;;
75021;SDS011;63583;49.976;20.182;2024-01-30T05:12:01;10.38;;;4.70;;
75021;SDS011;63583;49.976;20.182;2024-01-30T05:14:27;10.50;;;4.45;;
75021;SDS011;63583;49.976;20.182;2024-01-30T05:16:53;9.60;;;4.60;;
75021;SDS011;63583;49.976;20.182;2024-01-30T05:19:19;10.20;;;4.97;;
75021;SDS011;63583;49.976;20.182;2024-01-30T05:21:47;9.10;;;4.60;;
75021;SDS011;63583;49.976;20.182;2024-01-30T05:24:12;8.75;;;3.80;;
75021;SDS011;63583;49.976;20.182;2024-01-30T05:26:38;6.85;;;3.90;;
75021;SDS011;63583;49.976;20.182;2024-01-30T05:29:04;8.43;;;3.85;;
75021;SDS011;63583;49.976;20.182;2024-01-30T05:31:31;9.50;;;4.50;;
75021;SDS011;63583;49.976;20.182;2024-01-30T05:33:56;7.43;;;4.05;;
75021;SDS011;63583;49.976;20.182;2024-01-30T05:36:22;6.57;;;3.20;;
75021;SDS011;63583;49.976;20.182;2024-01-30T05:38:48;8.02;;;4.18;;
75021;SDS011;63583;49.976;20.182;2024-01-30T05:41:14;6.88;;;3.67;;
75021;SDS011;63583;49.976;20.182;2024-01-30T05:43:40;8.48;;;4.10;;
75021;SDS011;63583;49.976;20.182;2024-01-30T05:46:09;8.18;;;3.38;;
75021;SDS011;63583;49.976;20.182;2024-01-30T05:48:34;8.35;;;3.90;;
75021;SDS011;63583;49.976;20.182;2024-01-30T05:51:01;8.82;;;4.05;;
75021;SDS011;63583;49.976;20.182;2024-01-30T05:53:28;7.40;;;3.85;;
75021;SDS011;63583;49.976;20.182;2024-01-30T05:55:54;10.43;;;3.92;;
75021;SDS011;63583;49.976;20.182;2024-01-30T05:58:19;9.38;;;3.85;;
75021;SDS011;63583;49.976;20.182;2024-01-30T06:00:45;10.68;;;5.18;;
75021;SDS011;63583;49.976;20.182;2024-01-30T06:03:11;52.35;;;23.17;;
75021;SDS011;63583;49.976;20.182;2024-01-30T06:05:37;48.72;;;24.10;;
75021;SDS011;63583;49.976;20.182;2024-01-30T06:08:03;49.30;;;22.63;;
75021;SDS011;63583;49.976;20.182;2024-01-30T06:10:29;38.03;;;18.45;;
75021;SDS011;63583;49.976;20.182;2024-01-30T06:12:55;29.52;;;13.20;;
75021;SDS011;63583;49.976;20.182;2024-01-30T06:15:21;21.63;;;10.02;;
75021;SDS011;63583;49.976;20.182;2024-01-30T06:17:46;15.52;;;7.18;;
75021;SDS011;63583;49.976;20.182;2024-01-30T06:20:12;8.27;;;4.07;;
75021;SDS011;63583;49.976;20.182;2024-01-30T06:22:38;10.75;;;3.97;;
75021;SDS011;63583;49.976;20.182;2024-01-30T06:25:04;6.68;;;3.97;;
75021;SDS011;63583;49.976;20.182;2024-01-30T06:27:30;8.10;;;4.30;;
75021;SDS011;63583;49.976;20.182;2024-01-30T06:29:56;7.95;;;4.50;;
75021;SDS011;63583;49.976;20.182;2024-01-30T06:32:22;9.90;;;5.57;;
75021;SDS011;63583;49.976;20.182;2024-01-30T06:34:47;10.45;;;5.38;;
75021;SDS011;63583;49.976;20.182;2024-01-30T06:37:13;11.52;;;5.63;;
75021;SDS011;63583;49.976;20.182;2024-01-30T06:39:39;9.68;;;4.38;;
75021;SDS011;63583;49.976;20.182;2024-01-30T06:42:05;12.57;;;5.68;;
75021;SDS011;63583;49.976;20.182;2024-01-30T06:44:31;13.45;;;4.45;;
75021;SDS011;63583;49.976;20.182;2024-01-30T06:46:56;12.15;;;4.95;;
75021;SDS011;63583;49.976;20.182;2024-01-30T06:49:22;9.57;;;4.63;;
75021;SDS011;63583;49.976;20.182;2024-01-30T06:51:48;13.02;;;5.20;;
75021;SDS011;63583;49.976;20.182;2024-01-30T06:54:14;13.77;;;6.20;;
75021;SDS011;63583;49.976;20.182;2024-01-30T06:56:40;20.15;;;9.98;;
75021;SDS011;63583;49.976;20.182;2024-01-30T06:59:06;22.00;;;9.20;;
75021;SDS011;63583;49.976;20.182;2024-01-30T07:01:32;14.07;;;6.82;;
75021;SDS011;63583;49.976;20.182;2024-01-30T07:03:58;30.17;;;12.63;;
75021;SDS011;63583;49.976;20.182;2024-01-30T07:06:23;42.58;;;20.95;;
75021;SDS011;63583;49.976;20.182;2024-01-30T07:08:49;40.58;;;20.75;;
75021;SDS011;63583;49.976;20.182;2024-01-30T07:11:21;42.85;;;21.70;;
75021;SDS011;63583;49.976;20.182;2024-01-30T07:13:52;41.65;;;20.02;;
75021;SDS011;63583;49.976;20.182;2024-01-30T07:16:17;49.17;;;23.70;;
75021;SDS011;63583;49.976;20.182;2024-01-30T07:18:43;45.03;;;21.13;;
75021;SDS011;63583;49.976;20.182;2024-01-30T07:21:10;28.15;;;15.02;;
75021;SDS011;63583;49.976;20.182;2024-01-30T07:23:36;21.85;;;11.52;;
75021;SDS011;63583;49.976;20.182;2024-01-30T07:26:06;24.33;;;12.57;;
75021;SDS011;63583;49.976;20.182;2024-01-30T07:28:32;33.30;;;16.00;;
75021;SDS011;63583;49.976;20.182;2024-01-30T07:30:58;36.50;;;18.98;;
75021;SDS011;63583;49.976;20.182;2024-01-30T07:33:24;39.33;;;19.17;;
75021;SDS011;63583;49.976;20.182;2024-01-30T07:35:51;44.90;;;20.75;;
75021;SDS011;63583;49.976;20.182;2024-01-30T07:38:18;47.72;;;22.75;;
75021;SDS011;63583;49.976;20.182;2024-01-30T07:40:44;29.77;;;14.05;;
75021;SDS011;63583;49.976;20.182;2024-01-30T07:43:10;23.73;;;12.32;;
75021;SDS011;63583;49.976;20.182;2024-01-30T07:45:36;47.60;;;24.30;;
75021;SDS011;63583;49.976;20.182;2024-01-30T07:48:04;53.67;;;26.25;;
75021;SDS011;63583;49.976;20.182;2024-01-30T07:50:31;59.83;;;29.38;;
75021;SDS011;63583;49.976;20.182;2024-01-30T07:52:58;50.75;;;26.30;;
75021;SDS011;63583;49.976;20.182;2024-01-30T07:55:25;60.20;;;27.30;;
75021;SDS011;63583;49.976;20.182;2024-01-30T07:57:54;64.15;;;30.77;;
75021;SDS011;63583;49.976;20.182;2024-01-30T08:00:21;47.72;;;23.70;;
75021;SDS011;63583;49.976;20.182;2024-01-30T08:02:47;54.60;;;26.30;;
75021;SDS011;63583;49.976;20.182;2024-01-30T08:05:13;68.22;;;31.85;;
75021;SDS011;63583;49.976;20.182;2024-01-30T08:07:41;62.38;;;30.65;;
75021;SDS011;63583;49.976;20.182;2024-01-30T08:10:09;65.95;;;31.15;;
75021;SDS011;63583;49.976;20.182;2024-01-30T08:12:38;63.25;;;32.63;;
75021;SDS011;63583;49.976;20.182;2024-01-30T08:15:05;59.47;;;30.60;;
75021;SDS011;63583;49.976;20.182;2024-01-30T08:17:31;57.03;;;27.02;;
75021;SDS011;63583;49.976;20.182;2024-01-30T08:19:57;52.60;;;25.52;;
75021;SDS011;63583;49.976;20.182;2024-01-30T08:22:24;53.53;;;26.30;;
75021;SDS011;63583;49.976;20.182;2024-01-30T08:24:50;55.42;;;28.85;;
75021;SDS011;63583;49.976;20.182;2024-01-30T08:27:16;68.22;;;34.53;;
75021;SDS011;63583;49.976;20.182;2024-01-30T08:29:42;86.68;;;50.97;;
75021;SDS011;63583;49.976;20.182;2024-01-30T08:32:08;93.78;;;54.65;;
75021;SDS011;63583;49.976;20.182;2024-01-30T08:34:33;87.75;;;55.65;;
75021;SDS011;63583;49.976;20.182;2024-01-30T08:36:59;95.13;;;56.08;;
75021;SDS011;63583;49.976;20.182;2024-01-30T08:39:25;75.07;;;47.80;;
75021;SDS011;63583;49.976;20.182;2024-01-30T08:41:51;70.43;;;37.90;;
75021;SDS011;63583;49.976;20.182;2024-01-30T08:44:17;99.00;;;57.15;;
75021;SDS011;63583;49.976;20.182;2024-01-30T08:46:43;77.57;;;39.95;;
75021;SDS011;63583;49.976;20.182;2024-01-30T08:49:10;73.43;;;37.38;;
75021;SDS011;63583;49.976;20.182;2024-01-30T08:51:39;77.22;;;39.40;;
75021;SDS011;63583;49.976;20.182;2024-01-30T08:54:05;75.50;;;38.38;;
75021;SDS011;63583;49.976;20.182;2024-01-30T08:56:31;86.75;;;43.25;;
75021;SDS011;63583;49.976;20.182;2024-01-30T08:58:56;94.05;;;46.42;;
75021;SDS011;63583;49.976;20.182;2024-01-30T09:01:22;86.03;;;44.97;;
75021;SDS011;63583;49.976;20.182;2024-01-30T09:03:48;77.03;;;39.53;;
75021;SDS011;63583;49.976;20.182;2024-01-30T09:06:14;79.82;;;41.63;;
75021;SDS011;63583;49.976;20.182;2024-01-30T09:08:39;85.22;;;41.17;;
75021;SDS011;63583;49.976;20.182;2024-01-30T09:11:12;79.57;;;43.17;;
75021;SDS011;63583;49.976;20.182;2024-01-30T09:13:38;81.15;;;40.47;;
75021;SDS011;63583;49.976;20.182;2024-01-30T09:16:04;78.90;;;40.67;;
75021;SDS011;63583;49.976;20.182;2024-01-30T09:30:16;89.70;;;51.05;;
75021;SDS011;63583;49.976;20.182;2024-01-30T09:32:42;93.03;;;50.88;;
75021;SDS011;63583;49.976;20.182;2024-01-30T09:35:08;88.72;;;49.65;;
75021;SDS011;63583;49.976;20.182;2024-01-30T09:37:34;93.43;;;51.13;;
75021;SDS011;63583;49.976;20.182;2024-01-30T09:40:01;92.13;;;48.92;;
75021;SDS011;63583;49.976;20.182;2024-01-30T09:42:33;87.78;;;48.78;;
75021;SDS011;63583;49.976;20.182;2024-01-30T09:45:03;92.65;;;50.22;;
75021;SDS011;63583;49.976;20.182;2024-01-30T09:47:40;90.70;;;51.55;;
75021;SDS011;63583;49.976;20.182;2024-01-30T09:50:11;98.32;;;50.38;;
75021;SDS011;63583;49.976;20.182;2024-01-30T09:52:38;92.28;;;48.65;;
75021;SDS011;63583;49.976;20.182;2024-01-30T09:55:04;88.95;;;51.00;;
75021;SDS011;63583;49.976;20.182;2024-01-30T09:57:31;93.85;;;52.05;;
75021;SDS011;63583;49.976;20.182;2024-01-30T09:59:56;94.20;;;53.75;;
75021;SDS011;63583;49.976;20.182;2024-01-30T10:02:23;95.57;;;50.13;;
75021;SDS011;63583;49.976;20.182;2024-01-30T10:04:52;96.00;;;57.25;;
75021;SDS011;63583;49.976;20.182;2024-01-30T10:07:18;97.93;;;52.97;;
75021;SDS011;63583;49.976;20.182;2024-01-30T10:09:45;105.07;;;57.90;;
75021;SDS011;63583;49.976;20.182;2024-01-30T10:12:12;97.93;;;53.53;;
75021;SDS011;63583;49.976;20.182;2024-01-30T10:14:38;93.25;;;53.30;;
75021;SDS011;63583;49.976;20.182;2024-01-30T10:17:07;96.95;;;49.80;;
75021;SDS011;63583;49.976;20.182;2024-01-30T10:19:33;91.05;;;49.55;;
75021;SDS011;63583;49.976;20.182;2024-01-30T10:22:00;76.88;;;42.72;;
75021;SDS011;63583;49.976;20.182;2024-01-30T10:24:25;67.93;;;37.42;;
75021;SDS011;63583;49.976;20.182;2024-01-30T10:26:52;70.50;;;38.53;;
75021;SDS011;63583;49.976;20.182;2024-01-30T10:29:18;66.32;;;37.95;;
75021;SDS011;63583;49.976;20.182;2024-01-30T10:31:44;69.45;;;38.30;;
75021;SDS011;63583;49.976;20.182;2024-01-30T10:34:10;75.72;;;41.13;;
75021;SDS011;63583;49.976;20.182;2024-01-30T10:36:46;69.97;;;39.13;;
75021;SDS011;63583;49.976;20.182;2024-01-30T10:39:15;75.78;;;41.42;;
75021;SDS011;63583;49.976;20.182;2024-01-30T10:41:43;78.15;;;43.00;;
75021;SDS011;63583;49.976;20.182;2024-01-30T10:44:10;83.68;;;47.20;;
75021;SDS011;63583;49.976;20.182;2024-01-30T10:46:37;80.03;;;45.33;;
75021;SDS011;63583;49.976;20.182;2024-01-30T10:49:04;72.25;;;41.97;;
75021;SDS011;63583;49.976;20.182;2024-01-30T10:51:31;81.63;;;45.10;;
75021;SDS011;63583;49.976;20.182;2024-01-30T10:53:57;78.00;;;45.55;;
75021;SDS011;63583;49.976;20.182;2024-01-30T10:56:24;72.30;;;41.20;;
75021;SDS011;63583;49.976;20.182;2024-01-30T10:58:50;74.57;;;41.15;;
75021;SDS011;63583;49.976;20.182;2024-01-30T11:01:24;67.05;;;38.05;;
75021;SDS011;63583;49.976;20.182;2024-01-30T11:03:54;68.82;;;39.97;;
75021;SDS011;63583;49.976;20.182;2024-01-30T11:06:23;69.38;;;37.85;;
75021;SDS011;63583;49.976;20.182;2024-01-30T11:09:05;69.15;;;38.67;;
75021;SDS011;63583;49.976;20.182;2024-01-30T11:11:57;65.97;;;33.65;;
75021;SDS011;63583;49.976;20.182;2024-01-30T11:14:27;59.80;;;31.58;;
75021;SDS011;63583;49.976;20.182;2024-01-30T11:16:58;58.28;;;32.42;;
75021;SDS011;63583;49.976;20.182;2024-01-30T11:19:25;62.78;;;32.67;;
75021;SDS011;63583;49.976;20.182;2024-01-30T11:21:52;53.80;;;31.38;;
75021;SDS011;63583;49.976;20.182;2024-01-30T11:24:22;48.33;;;26.50;;
75021;SDS011;63583;49.976;20.182;2024-01-30T11:26:49;52.75;;;28.98;;
75021;SDS011;63583;49.976;20.182;2024-01-30T11:29:20;51.95;;;28.52;;
75021;SDS011;63583;49.976;20.182;2024-01-30T11:31:57;50.35;;;27.02;;
75021;SDS011;63583;49.976;20.182;2024-01-30T11:34:23;50.95;;;26.50;;
75021;SDS011;63583;49.976;20.182;2024-01-30T11:36:56;50.42;;;29.02;;
75021;SDS011;63583;49.976;20.182;2024-01-30T11:39:24;51.50;;;28.23;;
75021;SDS011;63583;49.976;20.182;2024-01-30T11:41:53;51.78;;;28.83;;
75021;SDS011;63583;49.976;20.182;2024-01-30T11:44:19;47.00;;;28.20;;
75021;SDS011;63583;49.976;20.182;2024-01-30T11:46:50;53.95;;;30.30;;
75021;SDS011;63583;49.976;20.182;2024-01-30T11:49:17;54.83;;;32.10;;
75021;SDS011;63583;49.976;20.182;2024-01-30T11:51:47;65.13;;;34.13;;
75021;SDS011;63583;49.976;20.182;2024-01-30T11:54:14;71.90;;;37.10;;
75021;SDS011;63583;49.976;20.182;2024-01-30T11:56:41;63.58;;;36.05;;
75021;SDS011;63583;49.976;20.182;2024-01-30T11:59:08;69.93;;;39.13;;
75021;SDS011;63583;49.976;20.182;2024-01-30T12:01:34;74.22;;;41.63;;
75021;SDS011;63583;49.976;20.182;2024-01-30T12:04:00;77.85;;;41.47;;
75021;SDS011;63583;49.976;20.182;2024-01-30T12:06:27;72.10;;;40.50;;
75021;SDS011;63583;49.976;20.182;2024-01-30T12:08:59;72.30;;;40.88;;
75021;SDS011;63583;49.976;20.182;2024-01-30T12:11:26;72.90;;;38.85;;
75021;SDS011;63583;49.976;20.182;2024-01-30T12:13:53;65.70;;;38.13;;
75021;SDS011;63583;49.976;20.182;2024-01-30T12:16:19;72.30;;;39.22;;
75021;SDS011;63583;49.976;20.182;2024-01-30T12:18:46;63.20;;;37.03;;
75021;SDS011;63583;49.976;20.182;2024-01-30T12:21:12;68.65;;;37.58;;
75021;SDS011;63583;49.976;20.182;2024-01-30T12:23:37;62.90;;;34.55;;
75021;SDS011;63583;49.976;20.182;2024-01-30T12:26:03;63.45;;;33.95;;
75021;SDS011;63583;49.976;20.182;2024-01-30T12:28:33;65.93;;;35.03;;
75021;SDS011;63583;49.976;20.182;2024-01-30T12:31:02;62.75;;;33.83;;
75021;SDS011;63583;49.976;20.182;2024-01-30T12:33:29;58.47;;;31.65;;
75021;SDS011;63583;49.976;20.182;2024-01-30T12:35:56;61.13;;;32.28;;
75021;SDS011;63583;49.976;20.182;2024-01-30T12:38:22;63.33;;;33.33;;
75021;SDS011;63583;49.976;20.182;2024-01-30T12:40:53;62.78;;;32.83;;
75021;SDS011;63583;49.976;20.182;2024-01-30T12:43:21;57.25;;;32.65;;
75021;SDS011;63583;49.976;20.182;2024-01-30T12:45:47;59.60;;;32.63;;
75021;SDS011;63583;49.976;20.182;2024-01-30T12:48:13;56.15;;;30.25;;
75021;SDS011;63583;49.976;20.182;2024-01-30T12:50:39;56.72;;;30.23;;
75021;SDS011;63583;49.976;20.182;2024-01-30T12:53:05;60.78;;;32.22;;
75021;SDS011;63583;49.976;20.182;2024-01-30T12:55:31;55.60;;;30.88;;
75021;SDS011;63583;49.976;20.182;2024-01-30T12:57:57;57.97;;;31.63;;
75021;SDS011;63583;49.976;20.182;2024-01-30T13:00:23;55.70;;;31.17;;
75021;SDS011;63583;49.976;20.182;2024-01-30T13:02:48;54.22;;;30.38;;
75021;SDS011;63583;49.976;20.182;2024-01-30T13:05:15;60.55;;;31.60;;
75021;SDS011;63583;49.976;20.182;2024-01-30T13:07:40;56.15;;;30.73;;
75021;SDS011;63583;49.976;20.182;2024-01-30T13:10:06;49.55;;;30.20;;
75021;SDS011;63583;49.976;20.182;2024-01-30T13:12:32;47.25;;;27.70;;
75021;SDS011;63583;49.976;20.182;2024-01-30T13:14:59;51.60;;;30.23;;
75021;SDS011;63583;49.976;20.182;2024-01-30T13:17:29;53.28;;;28.83;;
75021;SDS011;63583;49.976;20.182;2024-01-30T13:19:55;53.30;;;28.45;;
75021;SDS011;63583;49.976;20.182;2024-01-30T13:22:21;52.50;;;28.75;;
75021;SDS011;63583;49.976;20.182;2024-01-30T13:24:47;48.40;;;26.23;;
75021;SDS011;63583;49.976;20.182;2024-01-30T13:27:13;47.05;;;27.35;;
75021;SDS011;63583;49.976;20.182;2024-01-30T13:29:39;47.60;;;26.35;;
75021;SDS011;63583;49.976;20.182;2024-01-30T13:32:05;47.75;;;27.20;;
75021;SDS011;63583;49.976;20.182;2024-01-30T13:34:31;52.08;;;27.35;;
75021;SDS011;63583;49.976;20.182;2024-01-30T13:36:57;49.03;;;27.27;;
75021;SDS011;63583;49.976;20.182;2024-01-30T13:39:23;41.95;;;25.63;;
75021;SDS011;63583;49.976;20.182;2024-01-30T13:41:49;45.55;;;25.25;;
75021;SDS011;63583;49.976;20.182;2024-01-30T13:44:15;41.90;;;24.70;;
75021;SDS011;63583;49.976;20.182;2024-01-30T13:46:46;42.42;;;23.60;;
75021;SDS011;63583;49.976;20.182;2024-01-30T13:49:12;42.00;;;24.30;;
75021;SDS011;63583;49.976;20.182;2024-01-30T13:51:38;42.80;;;24.58;;
75021;SDS011;63583;49.976;20.182;2024-01-30T13:54:04;44.60;;;24.08;;
75021;SDS011;63583;49.976;20.182;2024-01-30T13:56:29;43.00;;;23.92;;
75021;SDS011;63583;49.976;20.182;2024-01-30T13:58:55;40.30;;;22.65;;
75021;SDS011;63583;49.976;20.182;2024-01-30T14:01:22;39.97;;;22.88;;
75021;SDS011;63583;49.976;20.182;2024-01-30T14:03:48;42.45;;;24.35;;
75021;SDS011;63583;49.976;20.182;2024-01-30T14:06:14;40.60;;;23.00;;
75021;SDS011;63583;49.976;20.182;2024-01-30T14:08:40;42.55;;;23.80;;
75021;SDS011;63583;49.976;20.182;2024-01-30T14:11:06;36.65;;;22.08;;
75021;SDS011;63583;49.976;20.182;2024-01-30T14:13:32;40.65;;;23.95;;
75021;SDS011;63583;49.976;20.182;2024-01-30T14:15:58;42.65;;;23.00;;
75021;SDS011;63583;49.976;20.182;2024-01-30T14:18:25;42.13;;;22.20;;
75021;SDS011;63583;49.976;20.182;2024-01-30T14:20:53;44.08;;;23.00;;
75021;SDS011;63583;49.976;20.182;2024-01-30T14:23:20;45.70;;;22.88;;
75021;SDS011;63583;49.976;20.182;2024-01-30T14:25:46;41.80;;;22.20;;
75021;SDS011;63583;49.976;20.182;2024-01-30T14:28:12;40.70;;;22.67;;